Time;durP1;ratioP1;P1;durP2;ratioP2;P2;SDS_P1;SDS_P2;PMS_P1;PMS_P2;Temp;Humidity;BMP_temperature;BMP_pressure;BME280_temperature;BME280_humidity;BME280_pressure;Samples;Min_cycle;Max_cycle;Signal;HPM_P1;HPM_P2
2024/01/07 00:04:55;;;;;;;1999.90;999.90;;;;;;;2.11;100.00;101648.75;10338988;28;20498;-64
2024/01/07 00:09:58;;;;;;;1999.90;999.90;;;;;;;2.13;100.00;101647.84;10338982;28;20058;-64
2024/01/07 00:15:00;;;;;;;1999.90;999.90;;;;;;;2.20;100.00;101652.09;10336800;28;20050;-64
2024/01/07 00:20:02;;;;;;;1999.90;999.90;;;;;;;2.26;100.00;101661.50;10338745;28;20054;-64
2024/01/07 00:25:05;;;;;;;1999.90;999.90;;;;;;;2.05;100.00;101667.72;10338406;28;20523;-64
2024/01/07 00:30:08;;;;;;;1999.90;999.90;;;;;;;2.02;100.00;101672.94;10338107;28;20057;-64
2024/01/07 00:35:10;;;;;;;1999.90;999.90;;;;;;;2.46;100.00;101683.75;10321526;28;20133;-64
2024/01/07 00:40:13;;;;;;;1999.90;999.90;;;;;;;2.27;100.00;101680.44;10336727;28;20133;-64
2024/01/07 00:45:15;;;;;;;1999.90;999.90;;;;;;;2.21;100.00;101689.97;10337478;28;20058;-64
2024/01/07 00:50:18;;;;;;;1999.90;999.90;;;;;;;1.90;100.00;101691.94;10336398;28;20081;-64
2024/01/07 00:55:22;;;;;;;1999.90;999.90;;;;;;;2.08;100.00;101696.09;10337484;28;20504;-64
2024/01/07 01:00:24;;;;;;;1999.90;999.90;;;;;;;1.89;100.00;101695.41;10337166;28;20050;-64
2024/01/07 01:05:27;;;;;;;1999.90;999.90;;;;;;;1.97;100.00;101701.38;10335630;28;20093;-64
2024/01/07 01:10:29;;;;;;;1999.90;999.90;;;;;;;1.96;100.00;101706.53;10336547;28;20046;-64
2024/01/07 01:15:32;;;;;;;1999.90;999.90;;;;;;;2.03;100.00;101709.09;10336355;28;20405;-64
2024/01/07 01:20:34;;;;;;;1999.90;999.90;;;;;;;1.72;100.00;101718.75;10336162;28;20077;-64
2024/01/07 01:25:37;;;;;;;1999.90;999.90;;;;;;;1.97;100.00;101719.44;10335157;28;20046;-64
2024/01/07 01:30:40;;;;;;;1999.90;999.90;;;;;;;2.22;100.00;101730.47;10334490;28;20056;-64
2024/01/07 01:35:43;;;;;;;1999.90;999.90;;;;;;;2.02;100.00;101735.78;10335862;28;20058;-64
2024/01/07 01:40:54;;;;;;;1999.90;999.90;;;;;;;2.17;100.00;101747.72;10335500;28;20100;-64
2024/01/07 01:45:58;;;;;;;1999.90;999.90;;;;;;;2.13;100.00;101746.00;10334251;28;20053;-64
2024/01/07 01:51:00;;;;;;;1999.90;999.90;;;;;;;2.10;100.00;101752.94;10334103;28;20061;-64
2024/01/07 01:56:03;;;;;;;1999.90;999.90;;;;;;;2.06;100.00;101754.69;10333926;28;20060;-64
2024/01/07 02:01:06;;;;;;;1999.90;999.90;;;;;;;2.20;100.00;101758.03;10334952;28;20137;-64
2024/01/07 02:06:11;;;;;;;1999.90;999.90;;;;;;;2.37;100.00;101768.25;10334415;28;20406;-64
2024/01/07 02:11:21;;;;;;;1999.90;999.90;;;;;;;2.15;100.00;101767.56;10333310;28;20058;-64
2024/01/07 02:16:24;;;;;;;1999.90;999.90;;;;;;;1.91;100.00;101773.72;10333189;28;20129;-64
2024/01/07 02:21:26;;;;;;;1999.90;999.90;;;;;;;1.72;100.00;101774.69;10334388;28;20046;-64
2024/01/07 02:26:28;;;;;;;1999.90;999.90;;;;;;;1.80;100.00;101788.41;10334439;28;20486;-64
2024/01/07 02:31:31;;;;;;;1999.90;999.90;;;;;;;1.88;100.00;101786.63;10333882;28;20100;-64
2024/01/07 02:36:34;;;;;;;1999.90;999.90;;;;;;;1.77;100.00;101784.13;10332692;28;20050;-64
2024/01/07 02:41:37;;;;;;;1999.90;999.90;;;;;;;1.80;100.00;101794.44;10332286;28;20105;-64
2024/01/07 02:46:39;;;;;;;1999.90;999.90;;;;;;;1.98;100.00;101801.22;10332666;28;20046;-64
2024/01/07 02:51:42;;;;;;;1999.90;999.90;;;;;;;2.10;100.00;101802.91;10333556;28;20061;-64
2024/01/07 02:56:45;;;;;;;1999.90;999.90;;;;;;;1.73;100.00;101807.38;10332606;28;20078;-64
2024/01/07 03:01:47;;;;;;;1999.90;999.90;;;;;;;1.84;100.00;101816.78;10333465;28;20061;-64
2024/01/07 03:06:50;;;;;;;1999.90;999.90;;;;;;;1.75;100.00;101813.38;10333112;28;20105;-64
2024/01/07 03:11:54;;;;;;;1999.90;999.90;;;;;;;1.91;100.00;101816.78;10333492;28;20085;-64
2024/01/07 03:16:56;;;;;;;1999.90;999.90;;;;;;;1.75;100.00;101819.44;10332969;28;20158;-64
2024/01/07 03:21:58;;;;;;;1999.90;999.90;;;;;;;1.69;100.00;101819.44;10332005;28;20052;-64
2024/01/07 03:27:01;;;;;;;1999.90;999.90;;;;;;;2.01;100.00;101828.75;10332935;28;20046;-64
2024/01/07 03:32:03;;;;;;;1999.90;999.90;;;;;;;1.68;100.00;101833.22;10331544;28;20081;-64
2024/01/07 03:37:06;;;;;;;1999.90;999.90;;;;;;;1.81;100.00;101834.88;10332884;28;20046;-64
2024/01/07 03:42:11;;;;;;;1999.90;999.90;;;;;;;1.79;100.00;101834.03;10332593;28;20046;-64
2024/01/07 03:47:14;;;;;;;1999.90;999.90;;;;;;;1.29;100.00;101847.94;10332705;28;20050;-64
2024/01/07 03:52:16;;;;;;;1999.90;999.90;;;;;;;1.64;100.00;101847.00;10337609;28;20129;-64
2024/01/07 03:57:18;;;;;;;1999.90;999.90;;;;;;;1.69;100.00;101850.44;10339427;28;20073;-64
2024/01/07 04:02:21;;;;;;;1999.90;999.90;;;;;;;1.72;100.00;101855.59;10339212;28;20054;-64
2024/01/07 04:07:23;;;;;;;1999.90;999.90;;;;;;;1.35;100.00;101857.41;10339048;28;20056;-64
2024/01/07 04:12:25;;;;;;;1999.90;999.90;;;;;;;1.54;100.00;101865.97;10339088;28;20051;-64
2024/01/07 04:17:28;;;;;;;1999.90;999.90;;;;;;;1.63;100.00;101868.50;10338735;28;20046;-64
2024/01/07 04:22:30;;;;;;;1999.90;999.90;;;;;;;1.72;100.00;101875.38;10338979;28;20489;-64
2024/01/07 04:27:32;;;;;;;1999.90;999.90;;;;;;;1.42;100.00;101884.94;10338399;28;20050;-64
2024/01/07 04:32:35;;;;;;;1999.90;999.90;;;;;;;1.42;100.00;101892.66;10338096;28;20573;-64
2024/01/07 04:37:38;;;;;;;1999.90;999.90;;;;;;;1.42;100.00;101901.25;10338570;28;20050;-64
2024/01/07 04:42:40;;;;;;;1999.90;999.90;;;;;;;1.48;100.00;101905.56;10337809;28;20083;-64
2024/01/07 04:47:43;;;;;;;1999.90;999.90;;;;;;;1.38;100.00;101904.72;10337629;28;20108;-64
2024/01/07 04:52:46;;;;;;;1999.90;999.90;;;;;;;1.48;100.00;101905.56;10335804;28;20066;-64
2024/01/07 04:57:48;;;;;;;1999.90;999.90;;;;;;;1.43;100.00;101913.31;10337194;28;20050;-64
2024/01/07 05:02:50;;;;;;;1999.90;999.90;;;;;;;1.45;100.00;101918.47;10337095;28;20413;-64
2024/01/07 05:07:53;;;;;;;1999.90;999.90;;;;;;;1.30;100.00;101916.78;10344770;23;20141;-64
2024/01/07 05:12:55;;;;;;;1999.90;999.90;;;;;;;1.27;100.00;101929.66;10336849;28;20050;-64
2024/01/07 05:17:58;;;;;;;1999.90;999.90;;;;;;;1.16;100.00;101939.13;10336365;28;20525;-64
2024/01/07 05:23:00;;;;;;;1999.90;999.90;;;;;;;1.27;100.00;101942.56;10335317;28;20125;-64
2024/01/07 05:28:03;;;;;;;1999.90;999.90;;;;;;;1.26;100.00;101948.56;10335855;28;20508;-64
2024/01/07 05:33:05;;;;;;;1999.90;999.90;;;;;;;1.32;100.00;101968.38;10336200;28;20062;-64
2024/01/07 05:38:08;;;;;;;1999.90;999.90;;;;;;;1.56;100.00;101962.31;10336073;28;20062;-64
2024/01/07 05:43:10;;;;;;;1999.90;999.90;;;;;;;1.64;100.00;101963.19;10335281;28;20141;-64
2024/01/07 05:48:13;;;;;;;1999.90;999.90;;;;;;;1.05;100.00;101967.50;10335190;28;20482;-64
2024/01/07 05:53:16;;;;;;;1999.90;999.90;;;;;;;1.19;100.00;101981.25;10335013;28;20054;-64
2024/01/07 05:58:18;;;;;;;1999.90;999.90;;;;;;;1.37;100.00;101979.56;10335390;28;20051;-64
2024/01/07 06:03:20;;;;;;;1999.90;999.90;;;;;;;1.13;100.00;101982.97;10334823;28;20058;-64
2024/01/07 06:08:23;;;;;;;1999.90;999.90;;;;;;;1.00;100.00;101998.44;10334321;28;20055;-64
2024/01/07 06:13:25;;;;;;;1999.90;999.90;;;;;;;1.33;100.00;102007.09;10334542;28;20052;-64
2024/01/07 06:18:27;;;;;;;1999.90;999.90;;;;;;;1.39;100.00;102011.38;10334222;28;20565;-64
2024/01/07 06:23:32;;;;;;;1999.90;999.90;;;;;;;1.02;100.00;102011.34;10334867;28;20078;-64
2024/01/07 06:28:34;;;;;;;1999.90;999.90;;;;;;;0.99;100.00;102026.81;10334093;28;20047;-64
2024/01/07 06:33:36;;;;;;;1999.90;999.90;;;;;;;1.03;100.00;102039.72;10333844;28;20046;-64
2024/01/07 06:38:39;;;;;;;1999.90;999.90;;;;;;;1.15;100.00;102045.78;10333900;28;20066;-64
2024/01/07 06:43:41;;;;;;;1999.90;999.90;;;;;;;0.96;100.00;102052.59;10333700;28;20050;-64
2024/01/07 06:48:43;;;;;;;1999.90;999.90;;;;;;;0.94;100.00;102062.88;10333787;28;20073;-64
2024/01/07 06:53:51;;;;;;;1999.90;999.90;;;;;;;1.01;100.00;102074.09;10332459;28;20051;-64
2024/01/07 06:58:54;;;;;;;1999.90;999.90;;;;;;;1.01;100.00;102082.72;10333422;28;20145;-64
2024/01/07 07:03:56;;;;;;;1999.90;999.90;;;;;;;0.92;100.00;102083.53;10333513;28;20129;-64
2024/01/07 07:08:59;;;;;;;1999.90;999.90;;;;;;;0.76;100.00;102091.19;10333265;28;20417;-64
2024/01/07 07:14:01;;;;;;;1999.90;999.90;;;;;;;0.91;100.00;102099.88;10333330;28;20047;-64
2024/01/07 07:19:03;;;;;;;1999.90;999.90;;;;;;;0.87;100.00;102098.09;10332964;28;20469;-64
2024/01/07 07:24:06;;;;;;;1999.90;999.90;;;;;;;1.01;100.00;102103.34;10334873;28;20046;-64
2024/01/07 07:29:11;;;;;;;1999.90;999.90;;;;;;;0.99;100.00;102124.81;10340562;28;20054;-64
2024/01/07 07:34:13;;;;;;;1999.90;999.90;;;;;;;0.82;100.00;102130.75;10341008;28;20409;-64
2024/01/07 07:39:16;;;;;;;1999.90;999.90;;;;;;;0.82;100.00;102141.06;10340443;28;20051;-64
2024/01/07 07:44:18;;;;;;;1999.90;999.90;;;;;;;1.01;100.00;102146.31;10338794;28;20047;-64
2024/01/07 07:49:21;;;;;;;1999.90;999.90;;;;;;;0.82;100.00;102163.41;10340057;28;20178;-64
2024/01/07 07:54:25;;;;;;;1999.90;999.90;;;;;;;0.53;100.00;102159.81;10339582;28;20505;-64
2024/01/07 07:59:27;;;;;;;1999.90;999.90;;;;;;;0.57;100.00;102171.00;10339692;28;20051;-64
2024/01/07 08:04:29;;;;;;;1999.90;999.90;;;;;;;0.62;100.00;102171.03;10339672;28;20125;-64
2024/01/07 08:09:32;;;;;;;1999.90;999.90;;;;;;;0.70;100.00;102179.69;10338777;28;20061;-64
2024/01/07 08:14:35;;;;;;;1999.90;999.90;;;;;;;0.99;100.00;102192.72;10339037;28;20154;-64
2024/01/07 08:19:38;;;;;;;1999.90;999.90;;;;;;;0.59;100.00;102189.94;10339159;28;20493;-64
2024/01/07 08:24:41;;;;;;;1999.90;999.90;;;;;;;0.57;100.00;102203.66;10337428;28;20046;-64
2024/01/07 08:29:44;;;;;;;1999.90;999.90;;;;;;;0.52;100.00;102212.25;10337111;28;20077;-64
2024/01/07 08:34:46;;;;;;;1999.90;999.90;;;;;;;0.44;100.00;102220.75;10337904;28;20105;-64
2024/01/07 08:39:48;;;;;;;1999.90;999.90;;;;;;;0.42;100.00;102227.59;10337884;28;20133;-64
2024/01/07 08:44:51;;;;;;;1999.90;999.90;;;;;;;0.55;100.00;102227.72;10336522;28;20046;-64
2024/01/07 08:49:53;;;;;;;1999.90;999.90;;;;;;;0.82;100.00;102233.88;10337702;28;20050;-64
2024/01/07 08:54:56;;;;;;;1999.90;999.90;;;;;;;0.74;100.00;102239.03;10337317;28;20513;-64
2024/01/07 08:59:58;;;;;;;1999.90;999.90;;;;;;;0.41;100.00;102249.09;10337144;28;20124;-64
2024/01/07 09:05:01;;;;;;;1999.90;999.90;;;;;;;0.80;100.00;102252.81;10336974;28;20047;-64
2024/01/07 09:10:03;;;;;;;1999.90;999.90;;;;;;;0.55;100.00;102256.09;10336822;28;20414;-64
2024/01/07 09:15:07;;;;;;;1999.90;999.90;;;;;;;0.55;100.00;102275.81;10336744;28;20125;-64
2024/01/07 09:20:11;;;;;;;1999.90;999.90;;;;;;;0.36;100.00;102277.38;10335749;28;20058;-64
2024/01/07 09:25:14;;;;;;;1999.90;999.90;;;;;;;0.67;100.00;102293.97;10336830;28;20050;-64
2024/01/07 09:30:17;;;;;;;1999.90;999.90;;;;;;;0.46;100.00;102297.22;10335917;28;20050;-64
2024/01/07 09:35:19;;;;;;;1999.90;999.90;;;;;;;0.53;100.00;102304.16;10336061;28;20050;-64
2024/01/07 09:40:22;;;;;;;1999.90;999.90;;;;;;;0.52;100.00;102309.28;10335568;28;20053;-64
2024/01/07 09:45:25;;;;;;;1999.90;999.90;;;;;;;0.60;100.00;102311.94;10335245;28;20138;-64
2024/01/07 09:50:27;;;;;;;1999.90;999.90;;;;;;;0.41;100.00;102326.41;10333468;28;20047;-64
2024/01/07 09:55:38;;;;;;;1999.90;999.90;;;;;;;0.60;100.00;102330.84;10334922;28;20125;-64
2024/01/07 10:00:40;;;;;;;1999.90;999.90;;;;;;;0.34;100.00;102341.78;10333652;28;20501;-64
2024/01/07 10:05:42;;;;;;;1999.90;999.90;;;;;;;0.66;100.00;102335.22;10334652;28;20050;-64
2024/01/07 10:10:45;;;;;;;1999.90;999.90;;;;;;;0.63;100.00;102348.91;10333560;28;20072;-64
2024/01/07 10:15:48;;;;;;;1999.90;999.90;;;;;;;0.51;100.00;102348.81;10349357;28;20425;-64
2024/01/07 10:20:50;;;;;;;1999.90;999.90;;;;;;;0.64;100.00;102355.81;10333103;28;20050;-64
2024/01/07 10:25:56;;;;;;;1999.90;999.90;;;;;;;0.72;100.00;102349.00;10338875;28;20493;-63
2024/01/07 10:31:01;;;;;;;1999.90;999.90;;;;;;;0.72;100.00;102351.59;10354493;28;20046;-63
2024/01/07 10:36:06;;;;;;;1999.90;999.90;;;;;;;0.83;100.00;102354.25;10347697;28;20046;-64
2024/01/07 10:41:11;;;;;;;1999.90;999.90;;;;;;;0.88;100.00;102357.72;10329683;28;20050;-64
2024/01/07 10:46:14;;;;;;;1999.90;999.90;;;;;;;1.26;100.00;102364.88;10325601;28;20049;-63
2024/01/07 10:51:19;;;;;;;1999.90;999.90;;;;;;;1.44;100.00;102363.25;10322276;28;20050;-63
2024/01/07 10:56:25;;;;;;;1999.90;999.90;;;;;;;1.54;100.00;102362.44;10314169;28;20053;-64
2024/01/07 11:01:27;;;;;;;1999.90;999.90;;;;;;;1.78;99.40;102359.13;10349305;28;20487;-63
2024/01/07 11:06:30;;;;;;;1999.90;999.90;;;;;;;2.24;96.79;102358.41;10323928;28;20492;-63
2024/01/07 11:11:42;;;;;;;1999.90;999.90;;;;;;;2.48;93.59;102362.75;10330458;28;20541;-64
2024/01/07 11:16:46;;;;;;;1999.90;999.90;;;;;;;3.51;91.98;102373.06;10327425;28;20395;-63
2024/01/07 11:21:48;;;;;;;1999.90;999.90;;;;;;;1.93;90.24;102372.94;10347482;28;20057;-67
2024/01/07 11:26:53;;;;;;;1999.90;999.90;;;;;;;1.74;92.38;102392.69;10334687;28;20047;-66
2024/01/07 11:31:55;;;;;;;1999.90;999.90;;;;;;;1.56;93.98;102391.72;10333880;28;20062;-66
2024/01/07 11:36:58;;;;;;;1999.90;999.90;;;;;;;1.32;92.74;102389.00;10339154;28;20449;-67
2024/01/07 11:42:02;;;;;;;1999.90;999.90;;;;;;;1.52;92.93;102392.56;10337194;28;20058;-66
2024/01/07 11:47:05;;;;;;;1999.90;999.90;;;;;;;2.23;92.12;102391.13;10338309;28;20125;-66
2024/01/07 11:52:09;;;;;;;1999.90;999.90;;;;;;;2.14;88.87;102392.84;10322856;28;20061;-66
2024/01/07 11:57:11;;;;;;;1999.90;999.90;;;;;;;1.77;88.94;102392.69;10337944;28;20092;-66
2024/01/07 12:02:15;;;;;;;1999.90;999.90;;;;;;;2.85;89.19;102395.56;10339744;28;20129;-66
2024/01/07 12:07:17;;;;;;;1999.90;999.90;;;;;;;1.80;88.41;102393.56;10338968;28;20142;-66
2024/01/07 12:12:20;;;;;;;1999.90;999.90;;;;;;;1.39;88.25;102398.50;10336958;28;20089;-67
2024/01/07 12:17:22;;;;;;;1999.90;999.90;;;;;;;1.21;87.77;102404.38;10338814;28;20126;-67
2024/01/07 12:22:26;;;;;;;1999.90;999.90;;;;;;;1.06;88.86;102402.56;10338751;28;20371;-66
2024/01/07 12:27:29;;;;;;;1999.90;999.90;;;;;;;0.90;86.05;102402.44;10338384;28;20050;-66
2024/01/07 12:32:32;;;;;;;1999.90;999.90;;;;;;;1.17;86.98;102410.41;10338498;28;20050;-66
2024/01/07 12:37:36;;;;;;;1999.90;999.90;;;;;;;1.09;84.70;102403.47;10337134;28;20054;-66
2024/01/07 12:42:44;;;;;;;1999.90;999.90;;;;;;;1.32;84.34;102397.59;10336756;28;20054;-66
2024/01/07 12:47:47;;;;;;;1999.90;999.90;;;;;;;1.09;82.57;102405.16;10336476;28;20472;-66
2024/01/07 12:52:49;;;;;;;1999.90;999.90;;;;;;;0.98;83.06;102414.56;10337452;28;20113;-66
2024/01/07 12:57:52;;;;;;;1999.90;999.90;;;;;;;0.83;82.32;102413.56;10336230;28;20057;-66
2024/01/07 13:02:55;;;;;;;1999.90;999.90;;;;;;;1.10;83.46;102412.06;10335876;28;20417;-66
2024/01/07 13:08:02;;;;;;;1999.90;999.90;;;;;;;1.09;83.18;102418.06;10336870;28;20134;-66
2024/01/07 13:13:04;;;;;;;1999.90;999.90;;;;;;;1.69;83.26;102438.28;10336620;28;20464;-66
2024/01/07 13:18:17;;;;;;;1999.90;999.90;;;;;;;1.67;82.35;102451.19;10336677;28;20047;-66
2024/01/07 13:23:19;;;;;;;1999.90;999.90;;;;;;;1.30;82.43;102448.34;10336625;28;20092;-66
2024/01/07 13:28:22;;;;;;;1999.90;999.90;;;;;;;1.21;82.05;102461.16;10336053;28;20442;-66
2024/01/07 13:33:24;;;;;;;1999.90;999.90;;;;;;;0.98;82.92;102467.00;10336356;28;20494;-66
2024/01/07 13:38:28;;;;;;;1999.90;999.90;;;;;;;1.12;82.02;102474.84;10335721;28;20051;-66
2024/01/07 13:43:30;;;;;;;1999.90;999.90;;;;;;;1.07;81.99;102481.69;10335485;28;20089;-66
2024/01/07 13:48:34;;;;;;;1999.90;999.90;;;;;;;1.00;80.76;102479.91;10335305;28;20046;-66
2024/01/07 13:53:36;;;;;;;1999.90;999.90;;;;;;;0.89;80.59;102492.69;10334001;28;20050;-66
2024/01/07 13:58:39;;;;;;;1999.90;999.90;;;;;;;0.66;79.87;102489.88;10335160;28;20049;-66
2024/01/07 14:03:43;;;;;;;1999.90;999.90;;;;;;;0.68;80.33;102496.78;10334068;28;20387;-66
2024/01/07 14:08:46;;;;;;;1999.90;999.90;;;;;;;0.76;80.92;102502.03;10334606;28;20054;-66
2024/01/07 14:13:48;;;;;;;1999.90;999.90;;;;;;;0.86;80.70;102509.00;10334394;28;20050;-66
2024/01/07 14:18:50;;;;;;;1999.90;999.90;;;;;;;0.99;80.92;102519.44;10334172;28;20131;-66
2024/01/07 14:23:53;;;;;;;1999.90;999.90;;;;;;;0.86;78.33;102516.72;10334265;28;20058;-66
2024/01/07 14:28:55;;;;;;;1999.90;999.90;;;;;;;0.83;80.34;102524.44;10332923;28;20050;-66
2024/01/07 14:34:17;;;;;;;1999.90;999.90;;;;;;;0.92;79.75;102536.56;10332598;28;20057;-67
2024/01/07 14:39:19;;;;;;;1999.90;999.90;;;;;;;0.77;80.18;102533.81;10333791;28;20126;-66
2024/01/07 14:44:22;;;;;;;1999.90;999.90;;;;;;;0.78;80.08;102541.56;10333902;28;20050;-66
2024/01/07 14:49:37;;;;;;;1999.90;999.90;;;;;;;0.74;80.28;102553.56;10333533;28;20592;-67
2024/01/07 14:54:40;;;;;;;1999.90;999.90;;;;;;;0.83;82.05;102565.69;10333490;28;20482;-67
2024/01/07 14:59:43;;;;;;;1999.90;999.90;;;;;;;0.79;82.06;102569.09;10333507;28;20081;-67
2024/01/07 15:04:45;;;;;;;1999.90;999.90;;;;;;;0.63;81.84;102569.75;10333561;28;20058;-67
2024/01/07 15:09:48;;;;;;;1999.90;999.90;;;;;;;0.59;82.04;102578.28;10333120;28;20549;-67
2024/01/07 15:14:51;;;;;;;1999.90;999.90;;;;;;;0.58;83.83;102585.16;10315958;28;20383;-67
2024/01/07 15:19:53;;;;;;;1999.90;999.90;;;;;;;0.38;83.81;102596.91;10333250;28;20129;-67
2024/01/07 15:24:55;;;;;;;1999.90;999.90;;;;;;;0.30;83.44;102600.25;10331820;28;20472;-67
2024/01/07 15:29:58;;;;;;;1999.90;999.90;;;;;;;0.13;83.75;102602.56;10333251;28;20134;-67
2024/01/07 15:35:00;;;;;;;1999.90;999.90;;;;;;;0.20;83.12;102612.97;10332851;28;20058;-68
2024/01/07 15:40:03;;;;;;;1999.90;999.90;;;;;;;-0.07;82.75;102616.84;10331515;28;20046;-68
2024/01/07 15:45:06;;;;;;;1999.90;999.90;;;;;;;0.13;83.86;102619.75;10334777;28;20113;-68
2024/01/07 15:50:12;;;;;;;1999.90;999.90;;;;;;;0.19;83.07;102622.41;10339717;28;20405;-68
2024/01/07 15:55:15;;;;;;;1999.90;999.90;;;;;;;0.02;84.20;102621.28;10339941;28;20062;-68
2024/01/07 16:00:18;;;;;;;1999.90;999.90;;;;;;;0.06;84.69;102626.50;10339898;28;20066;-68
2024/01/07 16:05:21;;;;;;;1999.90;999.90;;;;;;;0.06;85.17;102641.97;10339143;28;20158;-68
2024/01/07 16:10:23;;;;;;;1999.90;999.90;;;;;;;0.09;86.90;102639.44;10339106;28;20141;-68
2024/01/07 16:15:26;;;;;;;1999.90;999.90;;;;;;;-0.08;88.21;102654.63;10337999;28;20061;-68
2024/01/07 16:20:29;;;;;;;1999.90;999.90;;;;;;;0.02;87.73;102653.06;10339053;28;20050;-68
2024/01/07 16:25:31;;;;;;;1999.90;999.90;;;;;;;-0.13;87.24;102657.97;10338556;28;20149;-69
2024/01/07 16:30:34;;;;;;;1999.90;999.90;;;;;;;-0.18;86.09;102668.19;10338606;28;20053;-69
2024/01/07 16:35:39;;;;;;;1999.90;999.90;;;;;;;-0.27;86.81;102674.03;10338208;28;20077;-68
2024/01/07 16:40:43;;;;;;;1999.90;999.90;;;;;;;-0.12;87.98;102682.84;10338286;28;20057;-69
2024/01/07 16:45:45;;;;;;;1999.90;999.90;;;;;;;-0.10;88.49;102688.91;10337847;28;20134;-69
2024/01/07 16:50:50;;;;;;;1999.90;999.90;;;;;;;-0.25;89.90;102703.25;10337840;28;20517;-68
2024/01/07 16:55:53;;;;;;;1999.90;999.90;;;;;;;-0.16;90.05;102699.13;10337104;28;20050;-68
2024/01/07 17:00:57;;;;;;;1999.90;999.90;;;;;;;-0.06;89.95;102708.72;10337206;28;20057;-68
2024/01/07 17:06:00;;;;;;;1999.90;999.90;;;;;;;-0.43;91.19;102708.91;10336194;28;20073;-68
2024/01/07 17:11:03;;;;;;;1999.90;999.90;;;;;;;-0.31;nan;102721.16;10336172;28;20065;-68
2024/01/07 17:16:06;;;;;;;1999.90;999.90;;;;;;;-0.46;95.21;102721.72;10336636;28;20081;-68
2024/01/07 17:21:08;;;;;;;1999.90;999.90;;;;;;;-0.61;94.74;102731.72;10336523;28;20136;-68
2024/01/07 17:26:11;;;;;;;1999.90;999.90;;;;;;;-0.30;92.74;102740.03;10350413;23;20062;-68
2024/01/07 17:31:13;;;;;;;1999.90;999.90;;;;;;;-0.38;93.69;102745.91;10336376;28;20390;-68
2024/01/07 17:36:16;;;;;;;1999.90;999.90;;;;;;;-0.46;94.95;102751.75;10335859;28;20044;-69
2024/01/07 17:41:18;;;;;;;1999.90;999.90;;;;;;;-0.54;94.74;102751.56;10319026;28;20086;-68
2024/01/07 17:46:21;;;;;;;1999.90;999.90;;;;;;;-0.46;96.72;102759.47;10335644;28;20042;-68
2024/01/07 17:51:23;;;;;;;1999.90;999.90;;;;;;;-0.66;97.67;102754.78;10335466;28;20050;-68
2024/01/07 17:56:26;;;;;;;1999.90;999.90;;;;;;;-0.58;97.92;102755.78;10335271;28;20042;-68
2024/01/07 18:01:28;;;;;;;1999.90;999.90;;;;;;;-0.57;98.16;102777.28;10333732;28;20104;-68
2024/01/07 18:06:31;;;;;;;1999.90;999.90;;;;;;;-0.52;97.84;102774.78;10333645;28;20042;-68
2024/01/07 18:11:33;;;;;;;1999.90;999.90;;;;;;;-0.37;98.68;102772.50;10333765;28;20058;-68
2024/01/07 18:16:38;;;;;;;1999.90;999.90;;;;;;;-0.65;98.38;102777.09;10334450;28;20072;-68
2024/01/07 18:21:41;;;;;;;1999.90;999.90;;;;;;;-0.48;98.74;102786.88;10334238;28;20456;-68
2024/01/07 18:26:46;;;;;;;1999.90;999.90;;;;;;;-0.82;100.00;102791.31;10334087;28;20374;-68
2024/01/07 18:31:49;;;;;;;1999.90;999.90;;;;;;;-0.62;100.00;102804.63;10334454;28;20054;-68
2024/01/07 18:36:52;;;;;;;1999.90;999.90;;;;;;;-0.70;100.00;102807.00;10333919;28;20046;-68
2024/01/07 18:41:55;;;;;;;1999.90;999.90;;;;;;;-0.99;100.00;102825.22;10333045;28;20057;-68
2024/01/07 18:46:58;;;;;;;1999.90;999.90;;;;;;;-0.89;100.00;102817.72;10333493;28;20046;-68
2024/01/07 18:52:00;;;;;;;1999.90;999.90;;;;;;;-0.73;100.00;102831.81;10332682;28;20397;-68
2024/01/07 18:57:03;;;;;;;1999.90;999.90;;;;;;;-0.78;100.00;102832.56;10332437;28;20488;-68
2024/01/07 19:02:07;;;;;;;1999.90;999.90;;;;;;;-0.83;100.00;102833.28;10333564;28;20108;-68
2024/01/07 19:07:09;;;;;;;1999.90;999.90;;;;;;;-0.91;100.00;102845.97;10333394;28;20046;-68
2024/01/07 19:12:13;;;;;;;1999.90;999.90;;;;;;;-0.92;100.00;102846.81;10332263;28;20085;-68
2024/01/07 19:17:16;;;;;;;1999.90;999.90;;;;;;;-0.89;100.00;102861.44;10333148;28;20137;-68
2024/01/07 19:22:18;;;;;;;1999.90;999.90;;;;;;;-1.05;100.00;102857.66;10338886;28;20510;-68
2024/01/07 19:27:22;;;;;;;1999.90;999.90;;;;;;;-1.04;100.00;102864.50;10340916;28;20082;-68
2024/01/07 19:32:25;;;;;;;1999.90;999.90;;;;;;;-0.71;100.00;102863.56;10339781;28;20129;-68
2024/01/07 19:37:27;;;;;;;1999.90;999.90;;;;;;;-0.98;100.00;102870.66;10340621;28;20084;-68
2024/01/07 19:42:29;;;;;;;1999.90;999.90;;;;;;;-1.05;100.00;102866.22;10340274;28;20504;-67
2024/01/07 19:47:32;;;;;;;1999.90;999.90;;;;;;;-0.99;100.00;102871.53;10339973;28;20405;-67
2024/01/07 19:52:35;;;;;;;1999.90;999.90;;;;;;;-1.06;100.00;102874.78;10338754;28;20058;-67
2024/01/07 19:57:38;;;;;;;1999.90;999.90;;;;;;;-1.00;100.00;102866.34;10340295;28;20410;-67
2024/01/07 20:02:41;;;;;;;1999.90;999.90;;;;;;;-1.04;100.00;102873.13;10339599;28;20050;-67
2024/01/07 20:07:43;;;;;;;1999.90;999.90;;;;;;;-1.12;100.00;102872.06;10339266;28;20500;-67
2024/01/07 20:12:45;;;;;;;1999.90;999.90;;;;;;;-1.12;100.00;102867.78;10321980;28;20054;-67
2024/01/07 20:17:48;;;;;;;1999.90;999.90;;;;;;;-1.38;100.00;102869.72;10339201;28;20074;-67
2024/01/07 20:22:50;;;;;;;1999.90;999.90;;;;;;;-0.91;100.00;102875.97;10338763;28;20065;-67
2024/01/07 20:27:53;;;;;;;1999.90;999.90;;;;;;;-0.97;100.00;102879.28;10337491;28;20441;-67
2024/01/07 20:32:55;;;;;;;1999.90;999.90;;;;;;;-1.24;100.00;102880.34;10336333;28;20060;-67
2024/01/07 20:37:58;;;;;;;1999.90;999.90;;;;;;;-1.19;100.00;102888.16;10338050;28;20109;-67
2024/01/07 20:43:00;;;;;;;1999.90;999.90;;;;;;;-1.24;100.00;102890.63;10338209;28;20054;-67
2024/01/07 20:48:03;;;;;;;1999.90;999.90;;;;;;;-1.46;100.00;102891.78;10337842;28;20077;-67
2024/01/07 20:53:06;;;;;;;1999.90;999.90;;;;;;;-1.32;100.00;102886.97;10336624;28;20056;-67
2024/01/07 20:58:08;;;;;;;1999.90;999.90;;;;;;;-1.09;100.00;102884.09;10337500;28;20046;-67
2024/01/07 21:03:11;;;;;;;1999.90;999.90;;;;;;;-1.29;100.00;102883.59;10337088;28;20379;-67
2024/01/07 21:08:13;;;;;;;1999.90;999.90;;;;;;;-1.39;100.00;102883.38;10336029;28;20046;-67
2024/01/07 21:13:17;;;;;;;1999.90;999.90;;;;;;;-1.43;100.00;102886.72;10336812;28;20054;-67
2024/01/07 21:18:19;;;;;;;1999.90;999.90;;;;;;;-1.46;100.00;102891.78;10336206;28;20046;-67
2024/01/07 21:23:22;;;;;;;1999.90;999.90;;;;;;;-1.65;100.00;102890.38;10335390;28;20066;-67
2024/01/07 21:28:25;;;;;;;1999.90;999.90;;;;;;;-1.47;100.00;102900.28;10336036;28;20101;-67
2024/01/07 21:33:28;;;;;;;1999.90;999.90;;;;;;;-1.37;100.00;102911.69;10294534;28;20055;-67
2024/01/07 21:38:31;;;;;;;1999.90;999.90;;;;;;;-1.32;100.00;102910.09;10295386;28;20477;-67
2024/01/07 21:43:33;;;;;;;1999.90;999.90;;;;;;;-1.41;100.00;102910.75;10295254;28;20079;-67
2024/01/07 21:48:37;;;;;;;1999.90;999.90;;;;;;;-1.37;100.00;102921.97;10294608;28;20046;-66
2024/01/07 21:53:39;;;;;;;1999.90;999.90;;;;;;;-1.46;100.00;102925.19;10294124;28;20055;-67
2024/01/07 21:58:42;;;;;;;1999.90;999.90;;;;;;;-1.31;100.00;102925.56;10293946;28;20082;-66